Time;durP1;ratioP1;P1;durP2;ratioP2;P2;SDS_P1;SDS_P2;PMS_P1;PMS_P2;Temp;Humidity;BMP_temperature;BMP_pressure;BME280_temperature;BME280_humidity;BME280_pressure;Samples;Min_cycle;Max_cycle;Signal;HPM_P1;HPM_P2
2021/11/03 00:00:36;;;;;;;0.00;0.00;;;;;;;5.75;73.54;97591.18;115375;1216;137238;-85
2021/11/03 00:03:04;;;;;;;0.00;0.00;;;;;;;5.73;73.44;97596.94;115624;1214;22138;-85
2021/11/03 00:05:30;;;;;;;0.00;0.00;;;;;;;5.72;73.31;97599.95;115556;1215;137521;-85
2021/11/03 00:07:57;;;;;;;0.00;0.00;;;;;;;5.74;73.51;97605.36;115387;1215;137919;-85
2021/11/03 00:10:24;;;;;;;0.10;0.10;;;;;;;5.76;73.40;97607.25;115520;1215;137749;-85
2021/11/03 00:12:51;;;;;;;0.00;0.00;;;;;;;5.78;73.60;97609.41;115387;1215;137902;-85
2021/11/03 00:15:17;;;;;;;0.00;0.00;;;;;;;5.79;73.50;97607.10;115519;1216;22290;-85
2021/11/03 00:17:45;;;;;;;0.00;0.00;;;;;;;5.79;73.37;97616.34;115370;1215;137589;-85
2021/11/03 00:20:14;;;;;;;0.00;0.00;;;;;;;5.79;73.23;97616.35;115498;1216;137321;-85
2021/11/03 00:22:41;;;;;;;0.10;0.10;;;;;;;5.78;73.23;97625.44;115505;1212;137085;-85
2021/11/03 00:25:09;;;;;;;0.00;0.00;;;;;;;5.75;73.26;97629.71;115401;1215;137102;-85
2021/11/03 00:27:35;;;;;;;0.00;0.00;;;;;;;5.72;73.16;97630.61;115503;1216;137152;-85
2021/11/03 00:30:02;;;;;;;0.10;0.10;;;;;;;5.68;73.29;97632.14;115491;1213;137925;-85
2021/11/03 00:32:29;;;;;;;0.00;0.00;;;;;;;5.64;73.23;97637.56;115506;1216;137638;-85
2021/11/03 00:35:22;;;;;;;0.00;0.00;;;;;;;5.60;73.31;97632.98;115522;1216;137523;-86
2021/11/03 00:37:50;;;;;;;0.00;0.00;;;;;;;5.55;73.49;97629.96;115410;1214;137180;-85
2021/11/03 00:40:20;;;;;;;0.00;0.00;;;;;;;5.53;73.34;97627.64;115430;1216;138044;-85
2021/11/03 00:42:46;;;;;;;0.00;0.00;;;;;;;5.54;73.74;97630.21;115410;1212;137977;-85
2021/11/03 00:45:13;;;;;;;0.00;0.00;;;;;;;5.57;73.69;97627.69;115610;1215;22242;-85
2021/11/03 00:47:41;;;;;;;0.00;0.00;;;;;;;5.61;73.80;97633.43;115382;1215;137667;-85
2021/11/03 00:50:08;;;;;;;0.00;0.00;;;;;;;5.64;73.93;97635.98;115488;1215;137574;-85
2021/11/03 00:52:35;;;;;;;0.00;0.00;;;;;;;5.68;73.74;97637.26;115483;1213;137466;-85
2021/11/03 00:55:05;;;;;;;0.10;0.10;;;;;;;5.71;74.11;97637.86;115338;1216;137563;-85
2021/11/03 00:57:34;;;;;;;0.00;0.00;;;;;;;5.73;73.85;97639.88;115523;1216;22991;-86
2021/11/03 01:00:02;;;;;;;0.00;0.00;;;;;;;5.74;74.14;97643.14;115359;1213;137144;-86
2021/11/03 01:03:16;;;;;;;0.00;0.00;;;;;;;5.74;73.94;97651.69;115483;1213;137008;-87
2021/11/03 01:06:01;;;;;;;0.00;0.00;;;;;;;5.73;74.40;97655.38;115401;1215;137209;-86
2021/11/03 01:08:51;;;;;;;0.00;0.00;;;;;;;5.71;74.13;97654.30;115422;1216;137365;-86
2021/11/03 01:12:18;;;;;;;0.10;0.10;;;;;;;5.70;74.29;97654.36;115413;1216;137192;-87
2021/11/03 01:15:25;;;;;;;0.00;0.00;;;;;;;5.71;74.24;97653.52;115509;1209;137880;-87
2021/11/03 01:18:31;;;;;;;0.00;0.00;;;;;;;5.73;74.17;97662.27;115420;1216;138140;-87
2021/11/03 01:21:00;;;;;;;0.00;0.00;;;;;;;5.77;74.34;97666.91;115627;1216;23051;-85
2021/11/03 01:23:27;;;;;;;0.10;0.10;;;;;;;5.80;74.36;97670.68;115474;1213;137212;-85
2021/11/03 01:25:53;;;;;;;0.00;0.00;;;;;;;5.83;74.34;97678.55;115343;1211;137124;-85
2021/11/03 01:28:19;;;;;;;0.00;0.00;;;;;;;5.85;74.39;97678.30;115416;1213;137208;-85
2021/11/03 01:30:47;;;;;;;0.00;0.00;;;;;;;5.87;74.65;97679.77;115289;1216;137657;-85
2021/11/03 01:33:16;;;;;;;0.00;0.00;;;;;;;5.88;74.28;97680.74;115609;1216;22262;-85
2021/11/03 01:35:42;;;;;;;0.00;0.00;;;;;;;5.89;74.30;97676.73;115294;1216;136945;-85
2021/11/03 01:38:09;;;;;;;0.10;0.10;;;;;;;5.89;74.22;97675.13;115443;1216;137175;-84
2021/11/03 01:40:37;;;;;;;0.00;0.00;;;;;;;5.86;74.45;97673.95;115461;1216;137076;-85
2021/11/03 01:43:05;;;;;;;0.00;0.00;;;;;;;5.84;74.13;97673.62;115408;1216;137255;-85
2021/11/03 01:45:31;;;;;;;0.00;0.00;;;;;;;5.82;74.21;97675.27;115495;1216;22322;-85
2021/11/03 01:48:04;;;;;;;0.00;0.00;;;;;;;5.80;74.29;97677.85;115301;1216;137588;-85
2021/11/03 01:50:49;;;;;;;0.00;0.00;;;;;;;5.82;74.30;97678.58;115401;1201;137955;-84
2021/11/03 01:53:28;;;;;;;0.00;0.00;;;;;;;5.85;74.43;97676.31;115391;1217;138049;-84
2021/11/03 01:56:07;;;;;;;0.00;0.00;;;;;;;5.88;74.51;97676.11;115281;1217;137802;-85
2021/11/03 01:58:47;;;;;;;0.10;0.10;;;;;;;5.93;74.48;97671.02;115405;1217;137395;-85
2021/11/03 02:01:14;;;;;;;0.00;0.00;;;;;;;5.95;74.52;97666.82;115351;1212;137408;-85
2021/11/03 02:03:42;;;;;;;0.00;0.00;;;;;;;5.96;74.47;97664.50;115404;1217;137384;-85
2021/11/03 02:06:13;;;;;;;0.00;0.00;;;;;;;5.96;74.38;97669.68;115402;1212;137438;-85
2021/11/03 02:08:42;;;;;;;0.00;0.00;;;;;;;5.96;74.01;97665.25;115403;1215;137331;-85
2021/11/03 02:11:10;;;;;;;0.00;0.00;;;;;;;5.95;74.32;97663.84;115422;1216;137237;-85
2021/11/03 02:13:38;;;;;;;0.00;0.00;;;;;;;5.93;74.43;97659.96;115370;1210;137341;-85
2021/11/03 02:16:07;;;;;;;0.00;0.00;;;;;;;5.90;74.29;97658.59;115414;1213;137314;-85
2021/11/03 02:18:35;;;;;;;0.00;0.00;;;;;;;5.88;74.39;97663.55;115299;1216;137476;-85
2021/11/03 02:21:03;;;;;;;0.00;0.00;;;;;;;5.86;74.37;97664.86;115577;1216;22264;-85
2021/11/03 02:23:37;;;;;;;0.00;0.00;;;;;;;5.88;74.46;97671.34;115463;1216;137954;-85
2021/11/03 02:26:26;;;;;;;0.00;0.00;;;;;;;5.91;74.73;97668.85;115358;1216;138072;-84
2021/11/03 02:28:52;;;;;;;0.00;0.00;;;;;;;5.96;74.68;97665.85;115497;1210;137742;-84
2021/11/03 02:31:58;;;;;;;0.00;0.00;;;;;;;6.00;74.66;97671.44;115290;1214;137588;-85
2021/11/03 02:34:28;;;;;;;0.00;0.00;;;;;;;6.03;74.75;97664.96;115521;1216;137329;-85
2021/11/03 02:37:22;;;;;;;0.00;0.00;;;;;;;6.04;74.71;97667.14;115298;1213;137407;-84
2021/11/03 02:39:53;;;;;;;0.00;0.00;;;;;;;6.05;74.52;97670.86;115504;1213;137479;-84
2021/11/03 02:42:19;;;;;;;0.00;0.00;;;;;;;6.03;74.93;97674.20;115395;1216;137560;-84
2021/11/03 02:44:47;;;;;;;0.00;0.00;;;;;;;6.01;74.83;97667.71;115478;1213;137412;-85
2021/11/03 02:47:14;;;;;;;0.00;0.00;;;;;;;5.99;74.60;97668.62;115460;1216;137290;-85
2021/11/03 02:49:41;;;;;;;0.00;0.00;;;;;;;5.96;74.72;97668.17;115311;1213;137175;-86
2021/11/03 02:52:37;;;;;;;0.00;0.00;;;;;;;5.94;74.59;97667.11;115498;1211;137296;-86
2021/11/03 02:55:06;;;;;;;0.00;0.00;;;;;;;5.92;74.76;97670.55;115331;1216;138220;-85
2021/11/03 02:58:12;;;;;;;0.00;0.00;;;;;;;5.95;74.98;97667.48;115534;1216;22648;-88
2021/11/03 03:01:26;;;;;;;0.00;0.00;;;;;;;5.99;74.81;97672.30;115438;1216;138067;-87
2021/11/03 03:04:33;;;;;;;0.00;0.00;;;;;;;6.04;74.79;97675.92;115549;1216;137784;-87
2021/11/03 03:07:40;;;;;;;0.10;0.10;;;;;;;6.08;74.95;97674.48;115421;1213;137704;-87
2021/11/03 03:11:04;;;;;;;0.00;0.00;;;;;;;6.10;74.71;97675.08;115532;1216;137291;-86
2021/11/03 03:13:32;;;;;;;0.00;0.00;;;;;;;6.12;75.07;97680.18;115433;1211;137218;-86
2021/11/03 03:16:04;;;;;;;0.00;0.00;;;;;;;6.08;74.80;97678.70;115501;1216;137297;-86
2021/11/03 03:18:56;;;;;;;0.00;0.00;;;;;;;6.05;74.66;97680.30;115430;1212;136978;-86
2021/11/03 03:21:31;;;;;;;0.00;0.00;;;;;;;6.02;74.51;97687.21;115450;1216;137184;-86
2021/11/03 03:23:59;;;;;;;0.00;0.00;;;;;;;5.99;74.67;97689.34;115424;1215;137080;-86
2021/11/03 03:26:25;;;;;;;0.00;0.00;;;;;;;5.96;74.68;97692.45;115415;1216;137311;-86
2021/11/03 03:28:52;;;;;;;0.00;0.00;;;;;;;5.96;74.82;97682.92;115431;1213;137543;-85
2021/11/03 03:31:19;;;;;;;0.10;0.10;;;;;;;5.99;74.68;97685.23;115345;1212;138213;-86
2021/11/03 03:33:46;;;;;;;0.00;0.00;;;;;;;6.03;74.96;97690.77;115418;1216;138775;-86
2021/11/03 03:36:14;;;;;;;0.00;0.00;;;;;;;6.07;74.97;97691.92;115432;1216;138016;-86
2021/11/03 03:38:40;;;;;;;0.00;0.00;;;;;;;6.11;75.15;97692.70;115464;1215;137552;-85
2021/11/03 03:41:27;;;;;;;0.00;0.00;;;;;;;6.16;75.23;97692.88;115430;1216;137278;-86
2021/11/03 03:44:29;;;;;;;0.00;0.00;;;;;;;6.21;75.57;97698.30;115364;1216;137460;-86
2021/11/03 03:46:56;;;;;;;0.10;0.10;;;;;;;6.23;75.60;97698.40;115525;1212;137376;-86
2021/11/03 03:49:45;;;;;;;;;;;;;;;6.24;75.22;97705.23;115395;1213;137473;-86
2021/11/03 03:52:50;;;;;;;0.00;0.00;;;;;;;6.21;75.24;97697.81;115507;1216;123429;-86
2021/11/03 03:55:44;;;;;;;0.00;0.00;;;;;;;6.14;74.89;97696.86;115395;1216;137148;-86
2021/11/03 03:58:12;;;;;;;0.00;0.00;;;;;;;6.10;74.90;97698.88;115491;1216;137350;-86
2021/11/03 04:01:20;;;;;;;0.00;0.00;;;;;;;6.05;74.99;97693.88;115385;1213;137537;-86
2021/11/03 04:03:46;;;;;;;0.00;0.00;;;;;;;6.02;75.22;97699.20;115546;1210;137967;-86
2021/11/03 04:06:14;;;;;;;0.00;0.00;;;;;;;6.03;74.93;97701.52;115472;1216;138271;-85
2021/11/03 04:08:40;;;;;;;0.00;0.00;;;;;;;6.04;75.03;97707.27;115527;1216;137833;-86
2021/11/03 04:11:09;;;;;;;0.00;0.00;;;;;;;6.06;74.94;97703.48;115467;1213;137287;-85
2021/11/03 04:13:36;;;;;;;0.00;0.00;;;;;;;6.07;74.99;97694.38;115348;1216;137321;-85
2021/11/03 04:16:03;;;;;;;0.00;0.00;;;;;;;6.08;75.06;97694.05;115465;1213;137398;-85
2021/11/03 04:18:28;;;;;;;0.00;0.00;;;;;;;6.09;74.99;97693.05;115464;1216;137356;-84
2021/11/03 04:20:56;;;;;;;0.00;0.00;;;;;;;6.10;74.95;97701.70;115412;1216;137732;-84
2021/11/03 04:23:23;;;;;;;0.00;0.00;;;;;;;6.07;74.82;97705.23;115516;1212;137460;-85
2021/11/03 04:25:50;;;;;;;0.00;0.00;;;;;;;6.04;74.77;97710.42;115297;1216;137097;-85
2021/11/03 04:28:16;;;;;;;0.00;0.00;;;;;;;6.01;74.86;97712.20;115430;1216;137316;-85
2021/11/03 04:30:44;;;;;;;0.10;0.10;;;;;;;5.99;75.02;97715.87;115359;1216;137212;-85
2021/11/03 04:33:10;;;;;;;0.00;0.00;;;;;;;6.00;75.17;97712.84;115540;1216;22145;-85
2021/11/03 04:35:36;;;;;;;0.00;0.00;;;;;;;6.05;75.18;97717.98;115460;1216;137706;-85
2021/11/03 04:38:03;;;;;;;0.10;0.10;;;;;;;6.11;75.28;97716.48;115307;1201;138254;-85
2021/11/03 04:40:30;;;;;;;0.00;0.00;;;;;;;6.16;75.33;97709.93;115456;1213;137957;-85
2021/11/03 04:42:56;;;;;;;0.00;0.00;;;;;;;6.22;75.43;97714.69;115320;1216;137345;-85
2021/11/03 04:45:24;;;;;;;0.00;0.00;;;;;;;6.27;75.49;97720.05;115515;1215;22272;-85
2021/11/03 04:47:51;;;;;;;0.00;0.00;;;;;;;6.29;75.21;97724.50;115316;1201;137443;-86
2021/11/03 04:50:27;;;;;;;0.00;0.00;;;;;;;6.32;75.15;97730.64;115466;1213;137520;-86
2021/11/03 04:52:59;;;;;;;0.00;0.00;;;;;;;6.32;74.87;97735.92;115412;1216;137202;-86
2021/11/03 04:55:25;;;;;;;0.00;0.00;;;;;;;6.30;74.91;97735.69;115399;1216;137138;-85
2021/11/03 04:57:53;;;;;;;0.00;0.00;;;;;;;6.29;74.87;97734.70;115448;1212;137191;-85
2021/11/03 05:00:37;;;;;;;0.00;0.00;;;;;;;6.24;74.39;97740.27;115467;1216;137408;-86
2021/11/03 05:03:07;;;;;;;0.00;0.00;;;;;;;6.11;74.25;97746.52;115464;1213;136966;-85
2021/11/03 05:05:37;;;;;;;0.00;0.00;;;;;;;6.00;73.98;97756.48;115448;1216;137059;-85
2021/11/03 05:08:03;;;;;;;0.10;0.10;;;;;;;5.88;73.94;97753.70;115344;1216;138102;-84
2021/11/03 05:10:30;;;;;;;0.10;0.10;;;;;;;5.81;74.06;97752.73;115444;1216;138680;-84
2021/11/03 05:12:56;;;;;;;0.00;0.00;;;;;;;5.78;74.23;97753.44;115312;1216;138287;-85
2021/11/03 05:15:22;;;;;;;0.00;0.00;;;;;;;5.76;74.32;97752.71;115515;1216;23006;-82
2021/11/03 05:17:48;;;;;;;0.00;0.00;;;;;;;5.78;74.46;97751.14;115409;1212;137571;-84
2021/11/03 05:20:16;;;;;;;0.00;0.00;;;;;;;5.79;74.43;97752.89;115532;1216;137327;-84
2021/11/03 05:22:42;;;;;;;0.10;0.10;;;;;;;5.80;74.44;97753.99;115395;1213;137595;-84
2021/11/03 05:25:08;;;;;;;0.00;0.00;;;;;;;5.79;74.35;97754.34;115307;1216;137587;-84
2021/11/03 05:27:35;;;;;;;0.00;0.00;;;;;;;5.77;74.33;97756.19;115448;1216;137390;-84
2021/11/03 05:30:03;;;;;;;0.00;0.00;;;;;;;5.74;74.16;97759.44;115530;1213;137368;-84
2021/11/03 05:32:29;;;;;;;0.00;0.00;;;;;;;5.68;74.04;97759.27;115474;1216;137417;-85
2021/11/03 05:35:00;;;;;;;0.10;0.10;;;;;;;5.65;73.74;97761.67;115458;1214;137206;-85
2021/11/03 05:37:26;;;;;;;0.10;0.10;;;;;;;5.59;73.47;97764.27;115361;1212;137838;-85
2021/11/03 05:39:54;;;;;;;0.00;0.00;;;;;;;5.55;73.41;97761.98;115429;1214;137593;-85
2021/11/03 05:42:20;;;;;;;0.00;0.00;;;;;;;5.49;73.94;97769.83;115455;1215;137294;-85
2021/11/03 05:44:46;;;;;;;0.00;0.00;;;;;;;5.44;73.76;97769.30;115462;1216;137374;-85
2021/11/03 05:47:31;;;;;;;0.00;0.00;;;;;;;5.41;73.73;97770.95;115436;1216;137353;-85
2021/11/03 05:50:18;;;;;;;0.10;0.10;;;;;;;5.43;73.75;97772.11;115342;1214;138660;-85
2021/11/03 05:52:45;;;;;;;0.10;0.10;;;;;;;5.44;73.86;97768.23;115463;1216;138047;-84
2021/11/03 05:55:11;;;;;;;0.00;0.00;;;;;;;5.46;73.70;97774.77;115285;1213;137979;-84
2021/11/03 05:57:40;;;;;;;0.00;0.00;;;;;;;5.48;73.79;97777.15;115424;1216;137674;-84
2021/11/03 06:00:20;;;;;;;0.00;0.00;;;;;;;5.50;73.70;97779.42;115447;1210;137323;-85
2021/11/03 06:02:45;;;;;;;0.10;0.10;;;;;;;5.50;73.68;97783.27;115455;1216;137387;-84
2021/11/03 06:05:14;;;;;;;0.00;0.00;;;;;;;5.51;73.73;97785.55;115463;1213;137071;-82
2021/11/03 06:07:39;;;;;;;0.00;0.00;;;;;;;5.50;73.93;97784.98;115366;1215;137666;-83
2021/11/03 06:10:08;;;;;;;0.00;0.00;;;;;;;5.50;74.09;97780.96;115495;1215;137110;-84
2021/11/03 06:12:37;;;;;;;0.00;0.00;;;;;;;5.50;74.10;97775.45;115311;1213;137422;-82
2021/11/03 06:15:03;;;;;;;0.00;0.00;;;;;;;5.49;74.25;97775.05;115479;1216;22968;-82
2021/11/03 06:17:29;;;;;;;0.10;0.10;;;;;;;5.47;74.44;97777.70;115253;1209;137354;-82
2021/11/03 06:19:55;;;;;;;0.00;0.00;;;;;;;5.47;74.11;97779.09;115102;1209;140322;-82
2021/11/03 06:22:20;;;;;;;0.00;0.00;;;;;;;5.50;74.13;97778.19;115375;1210;137705;-84
2021/11/03 06:24:49;;;;;;;0.00;0.00;;;;;;;5.54;74.12;97779.73;115313;1216;138476;-82
2021/11/03 06:27:18;;;;;;;0.00;0.00;;;;;;;5.60;74.16;97785.45;115641;1216;22781;-83
2021/11/03 06:29:44;;;;;;;0.00;0.00;;;;;;;5.65;74.08;97785.01;115357;1209;139009;-82
2021/11/03 06:32:11;;;;;;;0.00;0.00;;;;;;;5.71;73.87;97787.21;115503;1216;137271;-82
2021/11/03 06:34:37;;;;;;;0.00;0.00;;;;;;;5.76;74.09;97792.57;115339;1216;137704;-82
2021/11/03 06:37:04;;;;;;;0.10;0.10;;;;;;;5.82;73.89;97798.41;115207;1216;138275;-82
2021/11/03 06:39:31;;;;;;;0.00;0.00;;;;;;;5.90;74.43;97808.12;115432;1216;22353;-82
2021/11/03 06:41:57;;;;;;;0.00;0.00;;;;;;;5.96;74.48;97808.64;115341;1211;136991;-82
2021/11/03 06:44:23;;;;;;;0.00;0.00;;;;;;;6.02;74.63;97809.49;115373;1216;138121;-82
2021/11/03 06:46:49;;;;;;;0.00;0.00;;;;;;;6.07;74.60;97816.25;115426;1216;137904;-82
2021/11/03 06:49:15;;;;;;;0.00;0.00;;;;;;;6.14;74.73;97815.27;115357;1216;137316;-82
2021/11/03 06:51:40;;;;;;;0.10;0.10;;;;;;;6.23;74.81;97810.70;115406;1216;138443;-82
2021/11/03 06:54:06;;;;;;;0.10;0.10;;;;;;;6.35;74.91;97808.34;115441;1216;137995;-82
2021/11/03 06:56:33;;;;;;;0.00;0.00;;;;;;;6.48;75.08;97812.11;115450;1216;138565;-82
2021/11/03 06:58:59;;;;;;;0.10;0.10;;;;;;;6.63;75.30;97814.45;115435;1213;138024;-82
2021/11/03 07:01:25;;;;;;;0.00;0.00;;;;;;;6.76;75.55;97813.62;115338;1215;137381;-82
2021/11/03 07:03:51;;;;;;;0.00;0.00;;;;;;;6.91;75.33;97822.19;115513;1214;138338;-82
2021/11/03 07:06:17;;;;;;;0.00;0.00;;;;;;;7.07;75.52;97825.04;115487;1213;137577;-82
2021/11/03 07:08:42;;;;;;;0.10;0.10;;;;;;;7.21;75.57;97813.81;115482;1215;137826;-82
2021/11/03 07:11:09;;;;;;;0.10;0.10;;;;;;;7.34;75.94;97811.81;115400;1216;137283;-82
2021/11/03 07:13:35;;;;;;;0.00;0.00;;;;;;;7.44;75.82;97813.95;115212;1214;137961;-82
2021/11/03 07:16:02;;;;;;;0.00;0.00;;;;;;;7.55;75.70;97811.39;115426;1210;137757;-81
2021/11/03 07:18:28;;;;;;;0.00;0.00;;;;;;;7.67;75.80;97815.52;115489;1213;138322;-82
2021/11/03 07:20:54;;;;;;;0.00;0.00;;;;;;;7.80;75.67;97819.06;115507;1211;137772;-82
2021/11/03 07:23:22;;;;;;;0.10;0.10;;;;;;;7.94;75.75;97823.79;115420;1216;137947;-81
2021/11/03 07:25:47;;;;;;;0.00;0.00;;;;;;;8.10;75.77;97829.54;115295;1216;137931;-82
2021/11/03 07:28:13;;;;;;;0.00;0.00;;;;;;;8.28;75.52;97836.46;115423;1216;136392;-83
2021/11/03 07:30:39;;;;;;;0.00;0.00;;;;;;;8.44;75.38;97837.31;115309;1209;137745;-82
2021/11/03 07:33:07;;;;;;;0.10;0.10;;;;;;;8.59;75.23;97839.71;115532;1217;22335;-83
2021/11/03 07:35:33;;;;;;;0.10;0.10;;;;;;;8.67;75.19;97845.18;115400;1215;137470;-83
2021/11/03 07:38:01;;;;;;;0.10;0.10;;;;;;;8.68;73.53;97845.21;115278;1216;137509;-85
2021/11/03 07:40:31;;;;;;;0.10;0.10;;;;;;;8.65;73.28;97844.66;115368;1216;138563;-83
2021/11/03 07:42:58;;;;;;;0.10;0.10;;;;;;;8.62;73.00;97847.38;115296;1216;137751;-82
2021/11/03 07:45:26;;;;;;;0.10;0.10;;;;;;;8.56;72.29;97849.65;115547;1212;22332;-82
2021/11/03 07:47:55;;;;;;;0.10;0.10;;;;;;;8.54;72.45;97848.38;115300;1216;139211;-81
2021/11/03 07:50:24;;;;;;;0.10;0.10;;;;;;;8.52;72.69;97846.75;115433;1215;138048;-81
2021/11/03 07:52:49;;;;;;;0.00;0.00;;;;;;;8.51;72.43;97851.55;115464;1213;137181;-82
2021/11/03 07:55:16;;;;;;;0.00;0.00;;;;;;;8.53;72.35;97859.14;115362;1213;137825;-81
2021/11/03 07:57:42;;;;;;;0.00;0.00;;;;;;;8.49;72.26;97857.10;115460;1216;137705;-82
2021/11/03 08:00:17;;;;;;;0.10;0.10;;;;;;;8.48;72.22;97858.50;115537;1215;138797;-83
2021/11/03 08:02:43;;;;;;;0.10;0.10;;;;;;;8.51;71.96;97849.21;115472;1215;138853;-83
2021/11/03 08:05:08;;;;;;;0.10;0.10;;;;;;;8.53;71.46;97844.98;115560;1211;137580;-81
2021/11/03 08:07:34;;;;;;;0.10;0.10;;;;;;;8.54;71.46;97845.84;115431;1215;137969;-81
2021/11/03 08:10:00;;;;;;;0.10;0.10;;;;;;;8.57;71.33;97844.75;115473;1208;138314;-81
2021/11/03 08:12:26;;;;;;;0.00;0.00;;;;;;;8.59;71.13;97844.35;115485;1215;137886;-81
2021/11/03 08:14:51;;;;;;;0.10;0.10;;;;;;;8.60;70.87;97847.08;115393;1209;137521;-82
2021/11/03 08:17:22;;;;;;;0.10;0.10;;;;;;;8.64;71.23;97849.23;115440;1209;137524;-80
2021/11/03 08:19:54;;;;;;;0.10;0.10;;;;;;;8.68;70.83;97846.38;115360;1216;137774;-79
2021/11/03 08:22:23;;;;;;;0.00;0.00;;;;;;;8.71;70.43;97845.60;115400;1211;138104;-80
2021/11/03 08:24:51;;;;;;;0.10;0.10;;;;;;;8.80;71.05;97846.02;115355;1212;138645;-80
2021/11/03 08:27:17;;;;;;;0.10;0.10;;;;;;;8.90;70.36;97846.12;115546;1216;22373;-80
2021/11/03 08:29:44;;;;;;;0.10;0.10;;;;;;;9.00;70.39;97847.67;115272;1216;137301;-79
2021/11/03 08:32:14;;;;;;;0.10;0.10;;;;;;;9.04;69.18;97840.98;115482;1216;137978;-79
2021/11/03 08:34:40;;;;;;;0.10;0.10;;;;;;;9.02;69.57;97829.73;115453;1216;137536;-81
2021/11/03 08:37:16;;;;;;;0.10;0.10;;;;;;;9.05;69.67;97827.91;115420;1216;137587;-82
2021/11/03 08:39:52;;;;;;;0.10;0.10;;;;;;;9.06;69.30;97823.55;115523;1216;137667;-85
2021/11/03 08:42:19;;;;;;;0.20;0.20;;;;;;;9.01;68.43;97816.02;115490;1211;137747;-86
2021/11/03 08:44:55;;;;;;;0.20;0.20;;;;;;;9.03;68.56;97806.40;115534;1216;137946;-85
2021/11/03 08:47:21;;;;;;;0.20;0.20;;;;;;;9.07;68.29;97806.71;115433;1217;137662;-82
2021/11/03 08:49:48;;;;;;;0.60;0.60;;;;;;;9.23;68.04;97812.96;115312;1217;137950;-81
2021/11/03 08:52:14;;;;;;;0.30;0.30;;;;;;;9.39;67.94;97808.25;115429;1216;137547;-81
2021/11/03 08:54:45;;;;;;;0.10;0.10;;;;;;;9.58;67.95;97806.19;115358;1216;137762;-81
2021/11/03 08:57:11;;;;;;;0.10;0.10;;;;;;;9.80;67.42;97794.88;115590;1216;22238;-81
2021/11/03 08:59:36;;;;;;;0.20;0.20;;;;;;;10.03;67.05;97793.32;115443;1215;137112;-80
2021/11/03 09:02:03;;;;;;;0.30;0.30;;;;;;;10.26;66.51;97792.70;115419;1215;138340;-79
2021/11/03 09:04:31;;;;;;;0.20;0.20;;;;;;;10.49;65.93;97795.97;115508;1207;138469;-79
2021/11/03 09:06:57;;;;;;;0.20;0.20;;;;;;;10.75;64.57;97802.23;115412;1210;137850;-79
2021/11/03 09:09:23;;;;;;;0.10;0.10;;;;;;;10.98;64.93;97802.91;115545;1216;22647;-80
2021/11/03 09:11:51;;;;;;;0.10;0.10;;;;;;;11.21;63.49;97808.01;115389;1216;136995;-80
2021/11/03 09:14:22;;;;;;;0.00;0.00;;;;;;;11.40;62.76;97813.33;115473;1216;137516;-78
2021/11/03 09:16:49;;;;;;;0.20;0.20;;;;;;;11.57;61.85;97819.08;115474;1216;137354;-82
2021/11/03 09:19:15;;;;;;;0.20;0.20;;;;;;;11.67;60.22;97825.45;115401;1216;137627;-80
2021/11/03 09:21:42;;;;;;;0.20;0.20;;;;;;;11.78;60.12;97824.70;115433;1216;138239;-80
2021/11/03 09:24:07;;;;;;;0.20;0.20;;;;;;;11.87;59.54;97831.13;115441;1216;137652;-80
2021/11/03 09:26:33;;;;;;;0.20;0.20;;;;;;;11.96;60.36;97830.09;115484;1216;137348;-79
2021/11/03 09:28:59;;;;;;;0.10;0.10;;;;;;;12.09;59.44;97827.45;115469;1216;137510;-79
2021/11/03 09:31:26;;;;;;;0.10;0.10;;;;;;;12.07;57.67;97821.44;115392;1213;137484;-78
2021/11/03 09:33:51;;;;;;;0.10;0.10;;;;;;;12.09;58.54;97817.17;115435;1216;137489;-79
2021/11/03 09:36:20;;;;;;;0.10;0.10;;;;;;;12.17;58.95;97821.80;115482;1213;137496;-79
2021/11/03 09:38:47;;;;;;;0.10;0.10;;;;;;;12.26;58.75;97809.97;115437;1216;137499;-79
2021/11/03 09:41:48;;;;;;;0.10;0.10;;;;;;;12.39;58.76;97811.17;115429;1209;137662;-79
2021/11/03 09:44:24;;;;;;;0.20;0.20;;;;;;;12.60;58.34;97807.80;115246;1208;138291;-82
2021/11/03 09:46:59;;;;;;;0.20;0.20;;;;;;;12.67;57.99;97802.94;115449;1209;137908;-82
2021/11/03 09:49:38;;;;;;;0.20;0.20;;;;;;;12.78;57.54;97801.71;115280;1216;138275;-82
2021/11/03 09:52:25;;;;;;;0.20;0.20;;;;;;;12.88;57.56;97801.05;115470;1212;137751;-83
2021/11/03 09:54:55;;;;;;;0.20;0.20;;;;;;;13.01;57.83;97799.24;115402;1216;137664;-82
2021/11/03 09:57:43;;;;;;;0.20;0.20;;;;;;;13.18;57.39;97792.79;115504;1213;22392;-83
2021/11/03 10:00:44;;;;;;;;;;;;;;;13.27;56.83;97790.77;115511;1209;137440;-83
2021/11/03 10:03:51;;;;;;;0.20;0.20;;;;;;;13.42;56.64;97790.83;115520;1216;22254;-83
2021/11/03 10:06:56;;;;;;;0.20;0.20;;;;;;;13.51;55.46;97787.98;115511;1215;137700;-83
2021/11/03 10:09:21;;;;;;;0.20;0.20;;;;;;;13.61;56.07;97786.05;115626;1216;22264;-84
2021/11/03 10:11:49;;;;;;;0.20;0.20;;;;;;;13.71;55.46;97789.63;115446;1212;137652;-82
2021/11/03 10:14:16;;;;;;;0.20;0.20;;;;;;;13.80;55.59;97786.73;115262;1213;137601;-82
2021/11/03 10:16:45;;;;;;;0.30;0.30;;;;;;;13.94;55.34;97782.52;115486;1212;137496;-81
2021/11/03 10:19:14;;;;;;;0.30;0.30;;;;;;;14.07;55.82;97778.94;115421;1216;137832;-82
2021/11/03 10:21:44;;;;;;;0.20;0.20;;;;;;;14.19;55.07;97780.66;115517;1216;137484;-85
2021/11/03 10:24:12;;;;;;;0.20;0.20;;;;;;;14.39;54.77;97782.95;115462;1216;137365;-84
2021/11/03 10:26:55;;;;;;;0.20;0.20;;;;;;;14.64;55.03;97786.38;115517;1216;137375;-85
2021/11/03 10:29:29;;;;;;;0.30;0.30;;;;;;;14.90;54.93;97787.55;115469;1216;137803;-84
2021/11/03 10:31:59;;;;;;;0.20;0.20;;;;;;;14.95;54.06;97782.00;115375;1216;137559;-82
2021/11/03 10:34:40;;;;;;;0.10;0.10;;;;;;;15.04;53.19;97782.07;115507;1216;137444;-81
2021/11/03 10:37:15;;;;;;;0.20;0.20;;;;;;;15.13;53.09;97781.58;115415;1213;137915;-82
2021/11/03 10:40:00;;;;;;;0.30;0.30;;;;;;;15.29;53.45;97777.65;115529;1216;137609;-81
2021/11/03 10:43:02;;;;;;;0.30;0.30;;;;;;;15.55;53.23;97769.27;115513;1216;138101;-81
2021/11/03 10:45:32;;;;;;;0.20;0.20;;;;;;;15.78;51.84;97764.80;115589;1216;22310;-81
2021/11/03 10:48:28;;;;;;;0.20;0.20;;;;;;;15.84;50.88;97760.12;115535;1216;138238;-81
2021/11/03 10:50:59;;;;;;;0.30;0.30;;;;;;;15.75;51.39;97761.34;115496;1216;137396;-81
2021/11/03 10:53:30;;;;;;;0.30;0.30;;;;;;;15.69;51.07;97757.80;115492;1213;137945;-84
2021/11/03 10:56:12;;;;;;;0.30;0.30;;;;;;;15.75;51.57;97760.88;115325;1215;137466;-84
2021/11/03 10:58:58;;;;;;;0.20;0.20;;;;;;;15.80;50.07;97760.27;115449;1213;137969;-82
2021/11/03 11:01:45;;;;;;;0.20;0.20;;;;;;;15.86;50.29;97759.06;115453;1213;137300;-84
2021/11/03 11:04:30;;;;;;;0.30;0.30;;;;;;;15.82;50.11;97760.00;115592;1215;137833;-82
2021/11/03 11:07:27;;;;;;;0.20;0.20;;;;;;;15.82;50.26;97753.95;115473;1215;137645;-85
2021/11/03 11:10:31;;;;;;;0.20;0.20;;;;;;;15.73;50.57;97742.60;115495;1215;137978;-85
2021/11/03 11:12:59;;;;;;;0.20;0.20;;;;;;;15.72;51.10;97739.34;115366;1213;137765;-84
2021/11/03 11:15:38;;;;;;;0.20;0.20;;;;;;;15.82;51.61;97743.48;115547;1215;22329;-84
2021/11/03 11:18:37;;;;;;;0.30;0.30;;;;;;;15.98;50.30;97750.83;115464;1215;137292;-85
2021/11/03 11:21:38;;;;;;;0.30;0.30;;;;;;;16.32;49.95;97739.33;115530;1209;22240;-84
2021/11/03 11:24:35;;;;;;;0.20;0.20;;;;;;;16.70;48.85;97737.07;115363;1216;137314;-84
2021/11/03 11:27:19;;;;;;;0.30;0.30;;;;;;;16.92;47.37;97730.98;115521;1216;22340;-83
2021/11/03 11:29:54;;;;;;;0.30;0.30;;;;;;;17.06;47.26;97735.08;115535;1216;137331;-84
2021/11/03 11:32:19;;;;;;;0.30;0.30;;;;;;;17.31;48.20;97731.84;115315;1209;138089;-84
2021/11/03 11:34:45;;;;;;;0.30;0.30;;;;;;;17.56;46.30;97730.11;115442;1213;137685;-84
2021/11/03 11:37:24;;;;;;;0.30;0.30;;;;;;;17.56;45.07;97735.88;115366;1209;137819;-84
2021/11/03 11:40:07;;;;;;;0.30;0.30;;;;;;;17.52;44.79;97733.41;115513;1209;139195;-84
2021/11/03 11:42:43;;;;;;;0.30;0.30;;;;;;;17.42;45.81;97731.66;115400;1216;138345;-84
2021/11/03 11:45:23;;;;;;;0.30;0.30;;;;;;;17.28;46.23;97734.90;115617;1213;22365;-84
2021/11/03 11:47:53;;;;;;;0.30;0.30;;;;;;;17.14;45.76;97730.77;115422;1216;137093;-84
2021/11/03 11:50:41;;;;;;;0.40;0.40;;;;;;;16.96;46.97;97722.89;115290;1216;138981;-83